Saturday, September 22, 2018, 11:09 PM EDT
Back to Local

KVAY, Mt Holly South Jersey Rgnl

Location: Medford, NJ, United States Lat: 39.933
Local Time: 11:09 PM EDT ( 3:09 GMT) Lon: -74.833
Time Zone: US/Eastern Elev: 52 ft

Show me the last for .
Show Decoded

2018-09-22 22:54 METAR KVAY 230254Z AUTO 00000KT 10SM CLR 16/14 A3019 RMK AO2 SLP223 T01610144
                 50002 =
2018-09-22 21:54 METAR KVAY 230154Z AUTO 00000KT 10SM CLR 17/14 A3019 RMK AO2 SLP224 T01670144 =
2018-09-22 20:54 METAR KVAY 230054Z AUTO 00000KT 10SM CLR 17/14 A3019 RMK AO2 SLP223 T01720144 =
2018-09-22 19:54 METAR KVAY 222354Z AUTO 32003KT 10SM CLR 18/13 A3018 RMK AO2 SLP221 T01780128
                 10239 20172 53012 =
2018-09-22 18:54 METAR KVAY 222254Z AUTO 36003KT 10SM CLR 18/13 A3017 RMK AO2 SLP215 T01780128 =
2018-09-22 17:54 METAR KVAY 222154Z AUTO 35004KT 10SM CLR 19/12 A3016 RMK AO2 SLP213 T01890122 =
2018-09-22 16:54 METAR KVAY 222054Z AUTO 01008KT 10SM FEW110 19/12 A3015 RMK AO2 SLP209 T01890117
                 51010 =
2018-09-22 15:54 METAR KVAY 221954Z AUTO 35010KT 10SM CLR 21/12 A3014 RMK AO2 SLP207 T02060122 =
2018-09-22 14:54 METAR KVAY 221854Z AUTO 34009KT 10SM CLR 22/12 A3013 RMK AO2 SLP202 T02220122 =
2018-09-22 13:54 METAR KVAY 221754Z AUTO 01007KT 10SM CLR 23/13 A3012 RMK AO2 SLP199 T02330133
                 10244 20222 50001 =
2018-09-22 12:54 METAR KVAY 221654Z AUTO 35008KT 330V030 10SM CLR 24/14 A3012 RMK AO2 SLP200
                 T02440144 =
2018-09-22 11:54 METAR KVAY 221554Z AUTO 02009KT 10SM CLR 23/14 A3012 RMK AO2 SLP197 T02280139 =
2018-09-22 10:54 METAR KVAY 221454Z AUTO 32011KT 10SM CLR 23/13 A3012 RMK AO2 SLP197 T02280133
                 51022 =
2018-09-22 09:54 METAR KVAY 221354Z AUTO 34011KT 10SM CLR 23/17 A3010 RMK AO2 SLP192 T02280167 =
2018-09-22 09:18 METAR KVAY 221318Z AUTO 36011KT 10SM SCT022 SCT027 24/18 A3008 RMK AO2 T02440183
                 =
2018-09-22 09:04 METAR KVAY 221304Z AUTO 01009G15KT 10SM SCT021 BKN026 24/19 A3007 RMK AO2
                 T02390189 =
2018-09-22 08:54 METAR KVAY 221254Z AUTO 35007KT 10SM SCT019 23/21 A3007 RMK AO2 SLP182 T02280206
                 =
2018-09-22 07:54 METAR KVAY 221154Z AUTO 28004KT 8SM CLR 23/22 A3005 RMK AO2 SLP175 60000
                 T02280217 10233 20222 53022 =
2018-09-22 06:54 METAR KVAY 221054Z AUTO 25003KT 9SM FEW085 BKN110 22/22 A3002 RMK AO2 RAB05E19
                 SLP165 P0000 T02220217 =
2018-09-22 05:54 METAR KVAY 220954Z AUTO 24004KT 10SM FEW017 BKN100 OVC110 23/22 A3000 RMK AO2
                 SLP160 T02280217 =
2018-09-22 05:34 METAR KVAY 220934Z AUTO 25003KT 10SM SCT019 OVC110 23/22 A2999 RMK AO2 T02280217
                 =
2018-09-22 04:54 METAR KVAY 220854Z AUTO 24005KT 10SM BKN015 BKN021 OVC100 23/21 A2999 RMK AO2
                 SLP154 T02280211 51007 =
2018-09-22 03:54 METAR KVAY 220754Z AUTO 24006KT 10SM OVC017 23/21 A2998 RMK AO2 SLP151 T02280211
                 =
2018-09-22 02:54 METAR KVAY 220654Z AUTO 23009G18KT 10SM OVC018 23/21 A2998 RMK AO2 SLP153
                 T02330211 =
2018-09-22 02:35 METAR KVAY 220635Z AUTO 24012G19KT 10SM BKN020 23/21 A3000 RMK AO2 T02330211 =
2018-09-22 02:13 METAR KVAY 220613Z AUTO 22007KT 10SM SCT024 23/21 A2997 RMK AO2 T02330206 =
2018-09-22 01:54 METAR KVAY 220554Z AUTO 21006G16KT 10SM OVC025 23/21 A2997 RMK AO2 SLP147
                 T02330206 10233 20211 58022 =
2018-09-22 01:04 METAR KVAY 220504Z AUTO VRB05KT 10SM OVC029 23/21 A2999 RMK AO2 T02280206 =
2018-09-22 00:54 METAR KVAY 220454Z AUTO VRB05KT 10SM OVC030 23/21 A2999 RMK AO2 SLP156 T02280206
                 402440172 =
2018-09-21 23:54 METAR KVAY 220354Z AUTO VRB06KT 10SM OVC031 23/20 A3002 RMK AO2 SLP163 T02280200
                 =

Support USWX by starting your Amazon purchase here.